sensor_id;sensor_type;location;lat;lon;timestamp;pressure;altitude;pressure_sealevel;temperature;humidity
51083;BME280;37131;42.694;23.350;2023-06-22T00:01:53;95888.09;;;17.29;100.00
51083;BME280;37131;42.694;23.350;2023-06-22T00:04:19;95887.06;;;17.35;100.00
51083;BME280;37131;42.694;23.350;2023-06-22T00:06:44;95890.50;;;17.35;100.00
51083;BME280;37131;42.694;23.350;2023-06-22T00:09:09;95893.47;;;17.44;100.00
51083;BME280;37131;42.694;23.350;2023-06-22T00:11:35;95883.19;;;17.43;100.00
51083;BME280;37131;42.694;23.350;2023-06-22T00:14:01;95882.41;;;17.42;100.00
51083;BME280;37131;42.694;23.350;2023-06-22T00:16:27;95885.22;;;17.35;100.00
51083;BME280;37131;42.694;23.350;2023-06-22T00:18:52;95889.47;;;17.36;100.00
51083;BME280;37131;42.694;23.350;2023-06-22T00:21:17;95880.22;;;17.34;100.00
51083;BME280;37131;42.694;23.350;2023-06-22T00:23:45;95881.25;;;17.33;100.00
51083;BME280;37131;42.694;23.350;2023-06-22T00:26:10;95877.31;;;17.35;100.00
51083;BME280;37131;42.694;23.350;2023-06-22T00:28:36;95868.91;;;17.39;100.00
51083;BME280;37131;42.694;23.350;2023-06-22T00:31:01;95859.09;;;17.29;100.00
51083;BME280;37131;42.694;23.350;2023-06-22T00:33:27;95855.38;;;17.25;100.00
51083;BME280;37131;42.694;23.350;2023-06-22T00:35:53;95863.03;;;17.26;100.00
51083;BME280;37131;42.694;23.350;2023-06-22T00:38:19;95864.53;;;17.17;100.00
51083;BME280;37131;42.694;23.350;2023-06-22T00:40:44;95863.97;;;17.15;100.00
51083;BME280;37131;42.694;23.350;2023-06-22T00:43:09;95865.00;;;17.14;100.00
51083;BME280;37131;42.694;23.350;2023-06-22T00:45:35;95865.00;;;17.14;100.00
51083;BME280;37131;42.694;23.350;2023-06-22T00:48:00;95868.19;;;17.16;100.00
51083;BME280;37131;42.694;23.350;2023-06-22T00:50:27;95862.63;;;17.12;100.00
51083;BME280;37131;42.694;23.350;2023-06-22T00:52:56;95867.84;;;17.07;100.00
51083;BME280;37131;42.694;23.350;2023-06-22T00:55:23;95871.78;;;17.05;100.00
51083;BME280;37131;42.694;23.350;2023-06-22T00:57:49;95867.81;;;17.02;100.00
51083;BME280;37131;42.694;23.350;2023-06-22T01:00:15;95866.50;;;17.05;100.00
51083;BME280;37131;42.694;23.350;2023-06-22T01:02:45;95877.66;;;17.12;100.00
51083;BME280;37131;42.694;23.350;2023-06-22T01:05:14;95880.00;;;17.08;100.00
51083;BME280;37131;42.694;23.350;2023-06-22T01:07:41;95883.41;;;17.09;100.00
51083;BME280;37131;42.694;23.350;2023-06-22T01:10:23;95875.44;;;17.04;100.00
51083;BME280;37131;42.694;23.350;2023-06-22T01:12:58;95876.50;;;17.03;100.00
51083;BME280;37131;42.694;23.350;2023-06-22T01:15:30;95871.75;;;16.99;100.00
51083;BME280;37131;42.694;23.350;2023-06-22T01:17:56;95886.75;;;16.99;100.00
51083;BME280;37131;42.694;23.350;2023-06-22T01:20:23;95893.31;;;16.96;100.00
51083;BME280;37131;42.694;23.350;2023-06-22T01:25:45;95884.91;;;16.99;100.00
51083;BME280;37131;42.694;23.350;2023-06-22T01:31:03;95889.44;;;16.82;100.00
51083;BME280;37131;42.694;23.350;2023-06-22T01:33:31;95888.31;;;16.73;100.00
51083;BME280;37131;42.694;23.350;2023-06-22T01:35:57;95894.72;;;16.82;100.00
51083;BME280;37131;42.694;23.350;2023-06-22T01:38:23;95893.75;;;16.88;100.00
51083;BME280;37131;42.694;23.350;2023-06-22T01:40:49;95894.53;;;16.89;100.00
51083;BME280;37131;42.694;23.350;2023-06-22T01:43:15;95895.22;;;16.79;100.00
51083;BME280;37131;42.694;23.350;2023-06-22T01:45:41;95899.91;;;16.77;100.00
51083;BME280;37131;42.694;23.350;2023-06-22T01:48:07;95890.69;;;16.74;100.00
51083;BME280;37131;42.694;23.350;2023-06-22T01:50:32;95903.38;;;16.77;100.00
51083;BME280;37131;42.694;23.350;2023-06-22T01:52:58;95874.91;;;16.52;100.00
51083;BME280;37131;42.694;23.350;2023-06-22T01:55:23;95907.00;;;16.71;100.00
51083;BME280;37131;42.694;23.350;2023-06-22T01:57:48;95910.78;;;16.58;100.00
51083;BME280;37131;42.694;23.350;2023-06-22T02:00:16;95912.59;;;16.36;100.00
51083;BME280;37131;42.694;23.350;2023-06-22T02:02:47;95917.06;;;16.35;100.00
51083;BME280;37131;42.694;23.350;2023-06-22T02:05:16;95918.59;;;16.31;100.00
51083;BME280;37131;42.694;23.350;2023-06-22T02:07:46;95919.03;;;16.23;100.00
51083;BME280;37131;42.694;23.350;2023-06-22T02:10:14;95924.84;;;16.25;100.00
51083;BME280;37131;42.694;23.350;2023-06-22T02:12:41;95923.72;;;16.21;100.00
51083;BME280;37131;42.694;23.350;2023-06-22T02:15:07;95912.47;;;16.25;100.00
51083;BME280;37131;42.694;23.350;2023-06-22T02:17:33;95911.38;;;16.21;100.00
51083;BME280;37131;42.694;23.350;2023-06-22T02:19:58;95907.25;;;16.08;100.00
51083;BME280;37131;42.694;23.350;2023-06-22T02:22:23;95910.00;;;15.96;100.00
51083;BME280;37131;42.694;23.350;2023-06-22T02:24:49;95914.53;;;16.01;100.00
51083;BME280;37131;42.694;23.350;2023-06-22T02:27:14;95914.47;;;15.96;100.00
51083;BME280;37131;42.694;23.350;2023-06-22T02:29:39;95911.09;;;16.01;100.00
51083;BME280;37131;42.694;23.350;2023-06-22T02:32:04;95907.16;;;16.03;100.00
51083;BME280;37131;42.694;23.350;2023-06-22T02:34:31;95904.09;;;16.06;100.00
51083;BME280;37131;42.694;23.350;2023-06-22T02:36:58;95906.88;;;16.00;100.00
51083;BME280;37131;42.694;23.350;2023-06-22T02:39:27;95902.63;;;15.99;100.00
51083;BME280;37131;42.694;23.350;2023-06-22T02:41:53;95898.69;;;15.96;100.00
51083;BME280;37131;42.694;23.350;2023-06-22T02:44:18;95909.00;;;16.03;100.00
51083;BME280;37131;42.694;23.350;2023-06-22T02:46:44;95912.78;;;15.90;100.00
51083;BME280;37131;42.694;23.350;2023-06-22T02:49:10;95908.72;;;15.82;100.00
51083;BME280;37131;42.694;23.350;2023-06-22T02:51:35;95910.00;;;15.79;100.00
51083;BME280;37131;42.694;23.350;2023-06-22T02:54:00;95913.97;;;15.82;100.00
51083;BME280;37131;42.694;23.350;2023-06-22T02:56:26;95911.91;;;15.84;100.00
51083;BME280;37131;42.694;23.350;2023-06-22T02:58:51;95913.50;;;15.85;100.00
51083;BME280;37131;42.694;23.350;2023-06-22T03:01:17;95915.16;;;15.91;100.00
51083;BME280;37131;42.694;23.350;2023-06-22T03:03:48;95915.16;;;15.91;100.00
51083;BME280;37131;42.694;23.350;2023-06-22T03:06:13;95914.38;;;15.91;100.00
51083;BME280;37131;42.694;23.350;2023-06-22T03:08:38;95908.81;;;15.87;100.00
51083;BME280;37131;42.694;23.350;2023-06-22T03:11:04;95919.09;;;15.89;100.00
51083;BME280;37131;42.694;23.350;2023-06-22T03:13:29;95927.03;;;15.94;100.00
51083;BME280;37131;42.694;23.350;2023-06-22T03:15:54;95934.78;;;16.01;100.00
51083;BME280;37131;42.694;23.350;2023-06-22T03:18:20;95931.91;;;16.02;100.00
51083;BME280;37131;42.694;23.350;2023-06-22T03:20:47;95936.25;;;16.13;100.00
51083;BME280;37131;42.694;23.350;2023-06-22T03:23:12;95938.72;;;16.03;100.00
51083;BME280;37131;42.694;23.350;2023-06-22T03:25:38;95939.06;;;16.07;100.00
51083;BME280;37131;42.694;23.350;2023-06-22T03:28:03;95946.16;;;16.06;100.00
51083;BME280;37131;42.694;23.350;2023-06-22T03:30:28;95939.53;;;16.04;100.00
51083;BME280;37131;42.694;23.350;2023-06-22T03:32:53;95946.94;;;16.07;100.00
51083;BME280;37131;42.694;23.350;2023-06-22T03:35:19;95947.63;;;16.19;100.00
51083;BME280;37131;42.694;23.350;2023-06-22T03:37:46;95942.31;;;16.14;100.00
51083;BME280;37131;42.694;23.350;2023-06-22T03:40:11;95941.75;;;16.12;100.00
51083;BME280;37131;42.694;23.350;2023-06-22T03:42:37;95950.47;;;16.12;100.00
51083;BME280;37131;42.694;23.350;2023-06-22T03:45:02;95958.75;;;16.21;100.00
51083;BME280;37131;42.694;23.350;2023-06-22T03:47:28;95959.75;;;16.20;100.00
51083;BME280;37131;42.694;23.350;2023-06-22T03:49:53;95958.91;;;16.14;100.00
51083;BME280;37131;42.694;23.350;2023-06-22T03:52:20;95962.88;;;16.17;100.00
51083;BME280;37131;42.694;23.350;2023-06-22T03:54:45;95964.78;;;16.22;100.00
51083;BME280;37131;42.694;23.350;2023-06-22T03:57:10;95970.97;;;16.33;100.00
51083;BME280;37131;42.694;23.350;2023-06-22T03:59:36;95974.59;;;16.26;100.00
51083;BME280;37131;42.694;23.350;2023-06-22T04:02:01;95966.19;;;16.29;100.00
51083;BME280;37131;42.694;23.350;2023-06-22T04:04:27;95968.28;;;16.27;100.00
51083;BME280;37131;42.694;23.350;2023-06-22T04:06:52;95975.84;;;16.24;100.00
51083;BME280;37131;42.694;23.350;2023-06-22T04:09:18;95970.69;;;16.12;100.00
51083;BME280;37131;42.694;23.350;2023-06-22T04:11:43;95966.31;;;16.18;100.00
51083;BME280;37131;42.694;23.350;2023-06-22T04:14:08;95951.72;;;16.10;100.00
51083;BME280;37131;42.694;23.350;2023-06-22T04:16:34;95953.47;;;16.04;100.00
51083;BME280;37131;42.694;23.350;2023-06-22T04:18:59;95961.63;;;16.03;100.00
51083;BME280;37131;42.694;23.350;2023-06-22T04:21:24;95955.09;;;16.05;100.00
51083;BME280;37131;42.694;23.350;2023-06-22T04:23:49;95946.72;;;16.08;100.00
51083;BME280;37131;42.694;23.350;2023-06-22T04:26:15;95939.13;;;16.12;100.00
51083;BME280;37131;42.694;23.350;2023-06-22T04:28:40;95942.19;;;16.04;100.00
51083;BME280;37131;42.694;23.350;2023-06-22T04:31:06;95933.63;;;16.13;100.00
51083;BME280;37131;42.694;23.350;2023-06-22T04:33:31;95938.72;;;16.20;100.00
51083;BME280;37131;42.694;23.350;2023-06-22T04:35:57;95931.50;;;16.33;100.00
51083;BME280;37131;42.694;23.350;2023-06-22T04:38:22;95946.59;;;16.37;100.00
51083;BME280;37131;42.694;23.350;2023-06-22T04:40:47;95939.38;;;16.49;100.00
51083;BME280;37131;42.694;23.350;2023-06-22T04:43:13;95932.47;;;16.65;100.00
51083;BME280;37131;42.694;23.350;2023-06-22T04:45:38;95937.03;;;16.75;100.00
51083;BME280;37131;42.694;23.350;2023-06-22T04:48:04;95937.09;;;16.80;100.00
51083;BME280;37131;42.694;23.350;2023-06-22T04:50:29;95942.00;;;16.94;100.00
51083;BME280;37131;42.694;23.350;2023-06-22T04:52:55;95945.53;;;17.05;100.00
51083;BME280;37131;42.694;23.350;2023-06-22T04:55:20;95964.59;;;17.12;100.00
51083;BME280;37131;42.694;23.350;2023-06-22T04:57:45;95963.59;;;17.18;100.00
51083;BME280;37131;42.694;23.350;2023-06-22T05:00:13;95963.59;;;17.18;100.00
51083;BME280;37131;42.694;23.350;2023-06-22T05:02:43;95955.78;;;17.28;100.00
51083;BME280;37131;42.694;23.350;2023-06-22T05:05:09;95963.25;;;17.36;100.00
51083;BME280;37131;42.694;23.350;2023-06-22T05:07:38;95953.09;;;17.50;100.00
51083;BME280;37131;42.694;23.350;2023-06-22T05:10:04;95949.44;;;17.51;100.00
51083;BME280;37131;42.694;23.350;2023-06-22T05:12:30;95945.53;;;17.59;100.00
51083;BME280;37131;42.694;23.350;2023-06-22T05:14:56;95947.16;;;17.65;100.00
51083;BME280;37131;42.694;23.350;2023-06-22T05:17:21;95943.50;;;17.71;100.00
51083;BME280;37131;42.694;23.350;2023-06-22T05:19:46;95950.47;;;17.83;100.00
51083;BME280;37131;42.694;23.350;2023-06-22T05:22:15;95954.25;;;17.92;100.00
51083;BME280;37131;42.694;23.350;2023-06-22T05:24:40;95959.56;;;17.97;100.00
51083;BME280;37131;42.694;23.350;2023-06-22T05:27:05;95958.81;;;18.02;100.00
51083;BME280;37131;42.694;23.350;2023-06-22T05:29:31;95953.84;;;18.11;100.00
51083;BME280;37131;42.694;23.350;2023-06-22T05:31:56;95959.75;;;18.28;100.00
51083;BME280;37131;42.694;23.350;2023-06-22T05:34:21;95965.56;;;18.30;100.00
51083;BME280;37131;42.694;23.350;2023-06-22T05:36:46;95966.91;;;18.33;100.00
51083;BME280;37131;42.694;23.350;2023-06-22T05:39:12;95967.69;;;18.33;100.00
51083;BME280;37131;42.694;23.350;2023-06-22T05:41:41;95972.28;;;18.48;100.00
51083;BME280;37131;42.694;23.350;2023-06-22T05:44:06;95977.59;;;18.53;100.00
51083;BME280;37131;42.694;23.350;2023-06-22T05:46:32;95986.53;;;18.47;100.00
51083;BME280;37131;42.694;23.350;2023-06-22T05:48:57;95992.16;;;18.61;100.00
51083;BME280;37131;42.694;23.350;2023-06-22T05:51:22;95981.38;;;18.73;99.95
51083;BME280;37131;42.694;23.350;2023-06-22T05:53:47;95978.16;;;18.66;99.32
51083;BME280;37131;42.694;23.350;2023-06-22T05:56:15;95974.47;;;18.67;100.00
51083;BME280;37131;42.694;23.350;2023-06-22T05:58:40;95979.31;;;18.85;100.00
51083;BME280;37131;42.694;23.350;2023-06-22T06:01:05;95979.13;;;18.97;100.00
51083;BME280;37131;42.694;23.350;2023-06-22T06:03:31;95979.16;;;19.13;100.00
51083;BME280;37131;42.694;23.350;2023-06-22T06:05:56;95972.88;;;19.24;98.15
51083;BME280;37131;42.694;23.350;2023-06-22T06:08:21;95971.28;;;19.18;94.27
51083;BME280;37131;42.694;23.350;2023-06-22T06:10:46;95965.22;;;19.33;94.31
51083;BME280;37131;42.694;23.350;2023-06-22T06:13:12;95966.53;;;19.30;93.43
51083;BME280;37131;42.694;23.350;2023-06-22T06:15:37;95967.34;;;19.51;93.40
51083;BME280;37131;42.694;23.350;2023-06-22T06:18:04;95960.75;;;19.64;94.03
51083;BME280;37131;42.694;23.350;2023-06-22T06:20:30;95960.72;;;19.59;93.07
51083;BME280;37131;42.694;23.350;2023-06-22T06:22:56;95961.03;;;19.78;91.10
51083;BME280;37131;42.694;23.350;2023-06-22T06:25:21;95960.22;;;19.83;90.24
51083;BME280;37131;42.694;23.350;2023-06-22T06:27:47;95956.00;;;20.02;91.73
51083;BME280;37131;42.694;23.350;2023-06-22T06:30:13;95955.16;;;20.22;91.47
51083;BME280;37131;42.694;23.350;2023-06-22T06:32:39;95953.28;;;20.38;90.21
51083;BME280;37131;42.694;23.350;2023-06-22T06:35:08;95955.13;;;20.48;85.96
51083;BME280;37131;42.694;23.350;2023-06-22T06:37:37;95958.78;;;20.67;84.48
51083;BME280;37131;42.694;23.350;2023-06-22T06:40:06;95951.34;;;20.64;86.56
51083;BME280;37131;42.694;23.350;2023-06-22T06:42:38;95952.13;;;20.80;87.49
51083;BME280;37131;42.694;23.350;2023-06-22T06:45:16;95948.59;;;20.95;85.76
51083;BME280;37131;42.694;23.350;2023-06-22T06:47:42;95950.38;;;21.10;85.34
51083;BME280;37131;42.694;23.350;2023-06-22T06:50:07;95948.19;;;21.23;84.13
51083;BME280;37131;42.694;23.350;2023-06-22T06:52:33;95941.19;;;21.37;82.94
51083;BME280;37131;42.694;23.350;2023-06-22T06:54:58;95938.59;;;21.32;83.99
51083;BME280;37131;42.694;23.350;2023-06-22T06:57:23;95933.38;;;21.16;83.78
51083;BME280;37131;42.694;23.350;2023-06-22T06:59:54;95939.72;;;21.15;85.19
51083;BME280;37131;42.694;23.350;2023-06-22T07:02:20;95940.06;;;21.09;85.45
51083;BME280;37131;42.694;23.350;2023-06-22T07:04:46;95934.69;;;21.19;84.48
51083;BME280;37131;42.694;23.350;2023-06-22T07:07:11;95939.44;;;21.22;85.28
51083;BME280;37131;42.694;23.350;2023-06-22T07:09:37;95940.47;;;21.26;84.68
51083;BME280;37131;42.694;23.350;2023-06-22T07:12:02;95939.59;;;21.36;84.46
51083;BME280;37131;42.694;23.350;2023-06-22T07:14:27;95944.03;;;21.56;84.76
51083;BME280;37131;42.694;23.350;2023-06-22T07:16:53;95933.53;;;21.70;83.45
51083;BME280;37131;42.694;23.350;2023-06-22T07:19:23;95937.44;;;21.83;82.18
51083;BME280;37131;42.694;23.350;2023-06-22T07:21:49;95935.56;;;21.83;81.04
51083;BME280;37131;42.694;23.350;2023-06-22T07:24:14;95937.91;;;22.19;76.63
51083;BME280;37131;42.694;23.350;2023-06-22T07:26:39;95924.94;;;22.13;77.78
51083;BME280;37131;42.694;23.350;2023-06-22T07:29:06;95933.19;;;22.11;79.24
51083;BME280;37131;42.694;23.350;2023-06-22T07:31:32;95932.59;;;22.19;81.31
51083;BME280;37131;42.694;23.350;2023-06-22T07:33:57;95932.72;;;22.33;79.95
51083;BME280;37131;42.694;23.350;2023-06-22T07:36:23;95931.38;;;22.36;78.18
51083;BME280;37131;42.694;23.350;2023-06-22T07:38:48;95940.59;;;22.43;76.74
51083;BME280;37131;42.694;23.350;2023-06-22T07:41:13;95937.81;;;22.54;75.85
51083;BME280;37131;42.694;23.350;2023-06-22T07:43:40;95936.97;;;22.58;75.92
51083;BME280;37131;42.694;23.350;2023-06-22T07:46:05;95938.66;;;22.49;76.00
51083;BME280;37131;42.694;23.350;2023-06-22T07:48:31;95932.41;;;22.83;76.99
51083;BME280;37131;42.694;23.350;2023-06-22T07:50:56;95933.41;;;23.11;77.13
51083;BME280;37131;42.694;23.350;2023-06-22T07:53:21;95931.75;;;23.35;72.98
51083;BME280;37131;42.694;23.350;2023-06-22T07:55:47;95929.78;;;23.59;73.63
51083;BME280;37131;42.694;23.350;2023-06-22T07:58:12;95926.25;;;23.64;72.02
51083;BME280;37131;42.694;23.350;2023-06-22T08:00:38;95921.06;;;23.73;71.50
51083;BME280;37131;42.694;23.350;2023-06-22T08:03:03;95919.94;;;23.74;70.16
51083;BME280;37131;42.694;23.350;2023-06-22T08:05:30;95915.72;;;23.73;71.30
51083;BME280;37131;42.694;23.350;2023-06-22T08:07:55;95916.94;;;23.80;68.32
51083;BME280;37131;42.694;23.350;2023-06-22T08:10:20;95910.53;;;23.81;69.28
51083;BME280;37131;42.694;23.350;2023-06-22T08:12:46;95908.69;;;23.96;71.78
51083;BME280;37131;42.694;23.350;2023-06-22T08:15:11;95908.22;;;24.08;72.51
51083;BME280;37131;42.694;23.350;2023-06-22T08:17:37;95895.91;;;24.26;70.21
51083;BME280;37131;42.694;23.350;2023-06-22T08:20:03;95897.69;;;24.30;68.55
51083;BME280;37131;42.694;23.350;2023-06-22T08:22:34;95900.06;;;24.46;65.51
51083;BME280;37131;42.694;23.350;2023-06-22T08:25:01;95906.09;;;24.38;64.84
51083;BME280;37131;42.694;23.350;2023-06-22T08:27:26;95896.41;;;24.56;63.32
51083;BME280;37131;42.694;23.350;2023-06-22T08:29:53;95888.31;;;24.61;63.83
51083;BME280;37131;42.694;23.350;2023-06-22T08:32:23;95883.56;;;24.72;66.13
51083;BME280;37131;42.694;23.350;2023-06-22T08:34:48;95888.56;;;24.87;65.08
51083;BME280;37131;42.694;23.350;2023-06-22T08:37:13;95895.88;;;24.95;65.37
51083;BME280;37131;42.694;23.350;2023-06-22T08:39:39;95905.34;;;25.01;63.50
51083;BME280;37131;42.694;23.350;2023-06-22T08:42:05;95891.31;;;24.96;63.06
51083;BME280;37131;42.694;23.350;2023-06-22T08:44:30;95895.88;;;24.95;63.40
51083;BME280;37131;42.694;23.350;2023-06-22T08:46:56;95903.38;;;24.93;61.15
51083;BME280;37131;42.694;23.350;2023-06-22T08:49:21;95895.97;;;24.90;61.94
51083;BME280;37131;42.694;23.350;2023-06-22T08:51:47;95890.91;;;25.02;64.56
51083;BME280;37131;42.694;23.350;2023-06-22T08:54:14;95890.56;;;25.18;63.94
51083;BME280;37131;42.694;23.350;2023-06-22T08:56:39;95881.66;;;25.22;62.73
51083;BME280;37131;42.694;23.350;2023-06-22T08:59:05;95873.53;;;25.28;63.43
51083;BME280;37131;42.694;23.350;2023-06-22T09:01:33;95870.66;;;25.38;65.05
51083;BME280;37131;42.694;23.350;2023-06-22T09:03:58;95868.63;;;25.44;64.94
51083;BME280;37131;42.694;23.350;2023-06-22T09:06:24;95869.34;;;25.58;61.70
51083;BME280;37131;42.694;23.350;2023-06-22T09:08:50;95863.66;;;25.73;58.62
51083;BME280;37131;42.694;23.350;2023-06-22T09:11:15;95873.84;;;25.71;57.86
51083;BME280;37131;42.694;23.350;2023-06-22T09:13:40;95865.41;;;25.78;59.94
51083;BME280;37131;42.694;23.350;2023-06-22T09:16:06;95864.94;;;25.85;59.74
51083;BME280;37131;42.694;23.350;2023-06-22T09:18:31;95858.88;;;25.93;59.46
51083;BME280;37131;42.694;23.350;2023-06-22T09:20:57;95865.06;;;26.02;56.20
51083;BME280;37131;42.694;23.350;2023-06-22T09:23:22;95863.97;;;26.03;56.44
51083;BME280;37131;42.694;23.350;2023-06-22T09:25:47;95865.28;;;26.15;57.31
51083;BME280;37131;42.694;23.350;2023-06-22T09:28:13;95865.91;;;26.20;56.20
51083;BME280;37131;42.694;23.350;2023-06-22T09:30:39;95869.72;;;26.28;55.06
51083;BME280;37131;42.694;23.350;2023-06-22T09:33:04;95870.94;;;26.22;56.71
51083;BME280;37131;42.694;23.350;2023-06-22T09:35:29;95874.75;;;26.30;58.34
51083;BME280;37131;42.694;23.350;2023-06-22T09:37:54;95872.44;;;26.46;56.59
51083;BME280;37131;42.694;23.350;2023-06-22T09:40:20;95859.41;;;26.53;56.18
51083;BME280;37131;42.694;23.350;2023-06-22T09:42:45;95866.81;;;26.65;54.91
51083;BME280;37131;42.694;23.350;2023-06-22T09:45:10;95869.69;;;26.68;50.94
51083;BME280;37131;42.694;23.350;2023-06-22T09:47:36;95860.72;;;26.73;51.51
51083;BME280;37131;42.694;23.350;2023-06-22T09:50:01;95857.28;;;26.72;53.00
51083;BME280;37131;42.694;23.350;2023-06-22T09:52:26;95852.09;;;26.85;53.32
51083;BME280;37131;42.694;23.350;2023-06-22T09:54:51;95851.91;;;26.90;54.32
51083;BME280;37131;42.694;23.350;2023-06-22T09:57:17;95843.28;;;26.84;51.97
51083;BME280;37131;42.694;23.350;2023-06-22T09:59:42;95847.69;;;26.89;51.85
51083;BME280;37131;42.694;23.350;2023-06-22T10:02:07;95840.88;;;26.65;52.76
51083;BME280;37131;42.694;23.350;2023-06-22T10:04:33;95835.56;;;26.83;53.46
51083;BME280;37131;42.694;23.350;2023-06-22T10:06:59;95834.31;;;26.89;52.08
51083;BME280;37131;42.694;23.350;2023-06-22T10:09:24;95835.22;;;27.10;53.68
51083;BME280;37131;42.694;23.350;2023-06-22T10:11:49;95835.56;;;27.00;50.87
51083;BME280;37131;42.694;23.350;2023-06-22T10:14:14;95834.31;;;26.89;49.91
51083;BME280;37131;42.694;23.350;2023-06-22T10:16:40;95837.63;;;26.94;49.92
51083;BME280;37131;42.694;23.350;2023-06-22T10:19:06;95828.97;;;27.15;52.25
51083;BME280;37131;42.694;23.350;2023-06-22T10:21:31;95828.16;;;27.14;50.63
51083;BME280;37131;42.694;23.350;2023-06-22T10:23:57;95828.78;;;27.29;50.17
51083;BME280;37131;42.694;23.350;2023-06-22T10:26:23;95825.16;;;27.42;49.80
51083;BME280;37131;42.694;23.350;2023-06-22T10:28:48;95835.09;;;27.33;47.49
51083;BME280;37131;42.694;23.350;2023-06-22T10:31:13;95827.03;;;27.51;49.61
51083;BME280;37131;42.694;23.350;2023-06-22T10:33:39;95832.16;;;27.73;49.55
51083;BME280;37131;42.694;23.350;2023-06-22T10:36:06;95824.81;;;27.53;45.83
51083;BME280;37131;42.694;23.350;2023-06-22T10:38:31;95820.09;;;27.50;46.75
51083;BME280;37131;42.694;23.350;2023-06-22T10:40:57;95814.81;;;27.79;50.04
51083;BME280;37131;42.694;23.350;2023-06-22T10:43:22;95807.19;;;27.99;48.99
51083;BME280;37131;42.694;23.350;2023-06-22T10:45:47;95809.19;;;28.11;47.94
51083;BME280;37131;42.694;23.350;2023-06-22T10:48:12;95807.03;;;27.95;48.20
51083;BME280;37131;42.694;23.350;2023-06-22T10:50:38;95805.06;;;28.13;48.77
51083;BME280;37131;42.694;23.350;2023-06-22T10:53:03;95804.66;;;27.94;47.09
51083;BME280;37131;42.694;23.350;2023-06-22T10:55:28;95807.59;;;27.71;45.92
51083;BME280;37131;42.694;23.350;2023-06-22T10:57:54;95803.13;;;27.84;46.70
51083;BME280;37131;42.694;23.350;2023-06-22T11:00:20;95800.56;;;27.96;45.84
51083;BME280;37131;42.694;23.350;2023-06-22T11:02:46;95808.03;;;28.21;47.87
51083;BME280;37131;42.694;23.350;2023-06-22T11:05:11;95802.09;;;28.36;46.61
51083;BME280;37131;42.694;23.350;2023-06-22T11:07:37;95805.81;;;28.52;45.98
51083;BME280;37131;42.694;23.350;2023-06-22T11:10:02;95807.19;;;28.59;46.58
51083;BME280;37131;42.694;23.350;2023-06-22T11:12:28;95798.78;;;28.69;44.72
51083;BME280;37131;42.694;23.350;2023-06-22T11:14:53;95785.91;;;28.53;44.12
51083;BME280;37131;42.694;23.350;2023-06-22T11:17:18;95800.72;;;28.60;45.80
51083;BME280;37131;42.694;23.350;2023-06-22T11:19:44;95786.88;;;28.28;46.71
51083;BME280;37131;42.694;23.350;2023-06-22T11:22:09;95791.75;;;28.56;47.25
51083;BME280;37131;42.694;23.350;2023-06-22T11:24:35;95786.84;;;28.79;46.82
51083;BME280;37131;42.694;23.350;2023-06-22T11:27:00;95783.69;;;28.98;44.34
51083;BME280;37131;42.694;23.350;2023-06-22T11:29:25;95781.66;;;29.16;46.61
51083;BME280;37131;42.694;23.350;2023-06-22T11:31:50;95772.41;;;29.26;44.28
51083;BME280;37131;42.694;23.350;2023-06-22T11:34:16;95777.31;;;29.24;46.40
51083;BME280;37131;42.694;23.350;2023-06-22T11:36:41;95777.38;;;29.15;45.72
51083;BME280;37131;42.694;23.350;2023-06-22T11:39:07;95778.47;;;28.80;44.40
51083;BME280;37131;42.694;23.350;2023-06-22T11:41:34;95779.06;;;28.65;46.32
51083;BME280;37131;42.694;23.350;2023-06-22T11:43:59;95785.56;;;28.34;47.57
51083;BME280;37131;42.694;23.350;2023-06-22T11:46:25;95782.69;;;28.09;46.07
51083;BME280;37131;42.694;23.350;2023-06-22T11:48:50;95772.63;;;28.06;45.76
51083;BME280;37131;42.694;23.350;2023-06-22T11:51:15;95767.03;;;28.20;46.27
51083;BME280;37131;42.694;23.350;2023-06-22T11:53:40;95758.69;;;28.22;45.35
51083;BME280;37131;42.694;23.350;2023-06-22T11:56:06;95759.66;;;28.59;46.33
51083;BME280;37131;42.694;23.350;2023-06-22T11:58:31;95756.50;;;28.66;46.83
51083;BME280;37131;42.694;23.350;2023-06-22T12:00:56;95759.06;;;28.53;46.27
51083;BME280;37131;42.694;23.350;2023-06-22T12:03:21;95763.00;;;28.56;48.27
51083;BME280;37131;42.694;23.350;2023-06-22T12:05:47;95765.25;;;28.54;45.89
51083;BME280;37131;42.694;23.350;2023-06-22T12:08:12;95760.44;;;28.39;46.07
51083;BME280;37131;42.694;23.350;2023-06-22T12:10:38;95756.44;;;28.24;46.26
51083;BME280;37131;42.694;23.350;2023-06-22T12:13:04;95762.47;;;28.21;50.90
51083;BME280;37131;42.694;23.350;2023-06-22T12:15:29;95774.38;;;28.02;51.92
51083;BME280;37131;42.694;23.350;2023-06-22T12:17:54;95778.06;;;27.80;49.33
51083;BME280;37131;42.694;23.350;2023-06-22T12:20:19;95776.25;;;27.63;51.85
51083;BME280;37131;42.694;23.350;2023-06-22T12:22:45;95796.03;;;27.41;47.92
51083;BME280;37131;42.694;23.350;2023-06-22T12:25:10;95801.25;;;27.20;49.45
51083;BME280;37131;42.694;23.350;2023-06-22T12:27:36;95799.66;;;27.01;51.00
51083;BME280;37131;42.694;23.350;2023-06-22T12:30:02;95806.59;;;26.85;50.97
51083;BME280;37131;42.694;23.350;2023-06-22T12:32:27;95807.19;;;26.64;53.14
51083;BME280;37131;42.694;23.350;2023-06-22T12:34:53;95823.09;;;26.52;55.22
51083;BME280;37131;42.694;23.350;2023-06-22T12:37:18;95821.31;;;26.38;55.99
51083;BME280;37131;42.694;23.350;2023-06-22T12:39:43;95829.75;;;26.14;59.51
51083;BME280;37131;42.694;23.350;2023-06-22T12:42:09;95823.28;;;26.06;60.31
51083;BME280;37131;42.694;23.350;2023-06-22T12:44:37;95809.91;;;26.06;61.16